Impacts METAR Board
IDs:

KBWI - Baltimore-Washington, MD, US

Updated at: 1200 UTC 15 Jul 2020
Potential Impact None Slight Moderate High
Time 15/00Z 15/01Z 15/02Z 15/03Z 15/04Z 15/05Z 15/06Z 15/07Z 15/08Z 15/09Z 15/10Z 15/11Z 15/12Z
Temp83 81 80 77 75 72 72 68 69 67 68 70 77
Dewpt62 62 63 62 64 64 64 64 64 63 63 64 65
Altim30.03 30.04 30.06 30.06 30.07 30.07 30.07 30.07 30.08 30.10 30.10 30.11 30.12
VIS10 10 10 10 10 10 10 10 10 10 10 10 10
CIG-- -- -- -- -- -- -- -- 250 250 250 250 --
CoverSCTSCTSCTFEWFEWFEWCLRFEWBKNBKNBKNBKNSCT
FltCatVFRVFRVFRVFRVFRVFRVFRVFRVFRVFRVFRVFRVFR
WX--------------------------
WDir150019020000025000000
WSpd4 0 3 3 0 0 0 3 0 0 0 0 0
WGst-- -- -- -- -- -- -- -- -- -- -- -- --
Raw hourly METARs
KBWI 142354Z 15004KT 10SM FEW075 SCT250 28/17 A3003 RMK AO2 SLP167 T02830167 10322 20283 53016
KBWI 150054Z 00000KT 10SM FEW075 SCT250 27/17 A3004 RMK AO2 SLP172 T02720167
KBWI 150154Z 19003KT 10SM FEW070 SCT250 27/17 A3006 RMK AO2 SLP177 T02670172
KBWI 150254Z 20003KT 10SM FEW070 FEW250 25/17 A3006 RMK AO2 SLP179 T02500167 51012
KBWI 150354Z 00000KT 10SM FEW080 FEW250 24/18 A3007 RMK AO2 SLP180 T02390178
KBWI 150454Z 00000KT 10SM FEW075 FEW250 22/18 A3007 RMK AO2 SLP181 T02220178 403220200
KBWI 150554Z 00000KT 10SM CLR 22/18 A3007 RMK AO2 SLP181 T02220178 10283 20211 50002
KBWI 150654Z 25003KT 10SM FEW250 20/18 A3007 RMK AO2 SLP180 T02000178
KBWI 150754Z 00000KT 10SM BKN250 21/18 A3008 RMK AO2 SLP184 T02060178
KBWI 150854Z 00000KT 10SM SCT085 BKN250 19/17 A3010 RMK AO2 SLP191 T01940172 53010
KBWI 150954Z 00000KT 10SM SCT090 BKN250 20/17 A3010 RMK AO2 SLP192 T02000172
KBWI 151054Z 00000KT 10SM SCT090 BKN250 21/18 A3011 RMK AO2 SLP196 T02110178
KBWI 151154Z 00000KT 10SM FEW085 SCT250 25/18 A3012 RMK AO2 SLP200 T02500183 10250 20194 53008



Page loaded:  12:00 UTC  |   05:00 AM Pacific  |   06:00 AM Mountain  |   07:00 AM Central  |   08:00 AM Eastern

 

ADVISORIES

FORECASTS

FORECASTS

OBSERVATIONS

USER TOOLS

ABOUT US